sensor_id;sensor_type;location;lat;lon;timestamp;pressure;altitude;pressure_sealevel;temperature;humidity
55590;BME280;41452;42.780;23.116;2023-03-13T00:01:55;94567.34;;;-1.01;79.74
55590;BME280;41452;42.780;23.116;2023-03-13T00:04:20;94572.81;;;-1.04;79.81
55590;BME280;41452;42.780;23.116;2023-03-13T00:06:46;94574.09;;;-1.08;80.20
55590;BME280;41452;42.780;23.116;2023-03-13T00:09:13;94583.91;;;-1.04;80.01
55590;BME280;41452;42.780;23.116;2023-03-13T00:11:39;94571.09;;;-1.22;79.86
55590;BME280;41452;42.780;23.116;2023-03-13T00:14:06;94585.06;;;-1.06;79.89
55590;BME280;41452;42.780;23.116;2023-03-13T00:16:32;94563.31;;;-1.30;80.23
55590;BME280;41452;42.780;23.116;2023-03-13T00:19:03;94594.03;;;-1.10;80.80
55590;BME280;41452;42.780;23.116;2023-03-13T00:21:29;94589.50;;;-1.17;80.81
55590;BME280;41452;42.780;23.116;2023-03-13T00:23:55;94588.84;;;-1.19;81.37
55590;BME280;41452;42.780;23.116;2023-03-13T00:26:22;94563.31;;;-1.30;81.55
55590;BME280;41452;42.780;23.116;2023-03-13T00:28:48;94594.72;;;-1.08;81.06
55590;BME280;41452;42.780;23.116;2023-03-13T00:31:23;94590.50;;;-1.09;82.01
55590;BME280;41452;42.780;23.116;2023-03-13T00:33:51;94590.50;;;-1.09;80.93
55590;BME280;41452;42.780;23.116;2023-03-13T00:36:22;94588.28;;;-1.04;81.34
55590;BME280;41452;42.780;23.116;2023-03-13T00:38:50;94591.94;;;-1.15;81.41
55590;BME280;41452;42.780;23.116;2023-03-13T00:41:20;94594.50;;;-1.15;81.19
55590;BME280;41452;42.780;23.116;2023-03-13T00:43:47;94586.44;;;-1.12;80.57
55590;BME280;41452;42.780;23.116;2023-03-13T00:46:14;94583.72;;;-1.10;80.33
55590;BME280;41452;42.780;23.116;2023-03-13T00:48:40;94582.28;;;-1.13;80.05
55590;BME280;41452;42.780;23.116;2023-03-13T00:51:06;94564.38;;;-1.15;80.78
55590;BME280;41452;42.780;23.116;2023-03-13T00:53:32;94583.88;;;-1.12;81.19
55590;BME280;41452;42.780;23.116;2023-03-13T00:56:00;94586.97;;;-1.08;80.33
55590;BME280;41452;42.780;23.116;2023-03-13T00:58:27;94581.00;;;-1.09;80.53
55590;BME280;41452;42.780;23.116;2023-03-13T01:00:54;94534.28;;;-1.40;79.78
55590;BME280;41452;42.780;23.116;2023-03-13T01:03:21;94573.88;;;-1.15;80.49
55590;BME280;41452;42.780;23.116;2023-03-13T01:05:56;94572.41;;;-1.18;80.34
55590;BME280;41452;42.780;23.116;2023-03-13T01:08:23;94566.25;;;-1.25;80.66
55590;BME280;41452;42.780;23.116;2023-03-13T01:10:48;94568.78;;;-1.33;80.52
55590;BME280;41452;42.780;23.116;2023-03-13T01:13:13;94555.53;;;-1.38;80.47
55590;BME280;41452;42.780;23.116;2023-03-13T01:15:39;94569.47;;;-1.23;80.93
55590;BME280;41452;42.780;23.116;2023-03-13T01:18:04;94554.53;;;-1.45;80.87
55590;BME280;41452;42.780;23.116;2023-03-13T01:20:30;94588.28;;;-1.30;80.66
55590;BME280;41452;42.780;23.116;2023-03-13T01:22:55;94580.53;;;-1.30;80.38
55590;BME280;41452;42.780;23.116;2023-03-13T01:25:21;94590.06;;;-1.31;80.44
55590;BME280;41452;42.780;23.116;2023-03-13T01:27:46;94588.47;;;-1.50;80.96
55590;BME280;41452;42.780;23.116;2023-03-13T01:30:11;94576.75;;;-1.44;81.56
55590;BME280;41452;42.780;23.116;2023-03-13T01:32:37;94588.69;;;-1.43;80.77
55590;BME280;41452;42.780;23.116;2023-03-13T01:35:02;94584.28;;;-1.51;80.39
55590;BME280;41452;42.780;23.116;2023-03-13T01:37:28;94587.66;;;-1.50;81.02
55590;BME280;41452;42.780;23.116;2023-03-13T01:39:53;94564.50;;;-1.68;81.11
55590;BME280;41452;42.780;23.116;2023-03-13T01:42:18;94596.94;;;-1.58;82.51
55590;BME280;41452;42.780;23.116;2023-03-13T01:44:56;94592.75;;;-1.59;81.53
55590;BME280;41452;42.780;23.116;2023-03-13T01:47:22;94597.31;;;-1.52;81.29
55590;BME280;41452;42.780;23.116;2023-03-13T01:49:47;94599.88;;;-1.52;81.23
55590;BME280;41452;42.780;23.116;2023-03-13T01:52:22;94597.16;;;-1.69;82.03
55590;BME280;41452;42.780;23.116;2023-03-13T01:57:26;94582.53;;;-1.68;81.88
55590;BME280;41452;42.780;23.116;2023-03-13T02:00:01;94596.28;;;-1.78;82.53
55590;BME280;41452;42.780;23.116;2023-03-13T02:02:29;94594.75;;;-1.88;83.27
55590;BME280;41452;42.780;23.116;2023-03-13T02:04:58;94599.47;;;-1.84;82.96
55590;BME280;41452;42.780;23.116;2023-03-13T02:07:52;94613.09;;;-1.92;82.78
55590;BME280;41452;42.780;23.116;2023-03-13T02:10:16;94613.28;;;-2.03;82.97
55590;BME280;41452;42.780;23.116;2023-03-13T02:12:42;94592.63;;;-2.11;82.21
55590;BME280;41452;42.780;23.116;2023-03-13T02:15:17;94614.41;;;-1.87;82.04
55590;BME280;41452;42.780;23.116;2023-03-13T02:17:44;94610.13;;;-1.97;82.82
55590;BME280;41452;42.780;23.116;2023-03-13T02:20:11;94618.38;;;-1.93;81.47
55590;BME280;41452;42.780;23.116;2023-03-13T02:27:47;94632.84;;;-2.10;83.45
55590;BME280;41452;42.780;23.116;2023-03-13T02:30:15;94634.69;;;-2.02;82.95
55590;BME280;41452;42.780;23.116;2023-03-13T02:32:42;94604.22;;;-2.25;82.36
55590;BME280;41452;42.780;23.116;2023-03-13T02:35:10;94643.50;;;-2.05;82.87
55590;BME280;41452;42.780;23.116;2023-03-13T02:37:37;94644.03;;;-2.01;82.98
55590;BME280;41452;42.780;23.116;2023-03-13T02:40:07;94637.91;;;-2.18;82.90
55590;BME280;41452;42.780;23.116;2023-03-13T02:42:37;94650.03;;;-2.11;83.19
55590;BME280;41452;42.780;23.116;2023-03-13T02:45:03;94624.44;;;-2.30;83.14
55590;BME280;41452;42.780;23.116;2023-03-13T02:47:28;94653.22;;;-2.17;83.21
55590;BME280;41452;42.780;23.116;2023-03-13T02:49:53;94652.09;;;-2.14;82.72
55590;BME280;41452;42.780;23.116;2023-03-13T02:52:20;94649.91;;;-2.09;83.19
55590;BME280;41452;42.780;23.116;2023-03-13T02:54:51;94650.84;;;-2.10;82.84
55590;BME280;41452;42.780;23.116;2023-03-13T02:57:17;94661.81;;;-2.08;83.21
55590;BME280;41452;42.780;23.116;2023-03-13T02:59:42;94648.19;;;-2.18;83.10
55590;BME280;41452;42.780;23.116;2023-03-13T03:02:08;94662.81;;;-2.19;83.48
55590;BME280;41452;42.780;23.116;2023-03-13T03:04:33;94636.38;;;-2.39;83.53
55590;BME280;41452;42.780;23.116;2023-03-13T03:06:58;94671.13;;;-2.25;83.83
55590;BME280;41452;42.780;23.116;2023-03-13T03:09:24;94670.94;;;-2.41;83.89
55590;BME280;41452;42.780;23.116;2023-03-13T03:11:50;94678.44;;;-2.30;84.19
55590;BME280;41452;42.780;23.116;2023-03-13T03:14:15;94688.69;;;-2.20;83.80
55590;BME280;41452;42.780;23.116;2023-03-13T03:16:41;94649.84;;;-2.45;83.43
55590;BME280;41452;42.780;23.116;2023-03-13T03:19:06;94673.41;;;-2.22;83.43
55590;BME280;41452;42.780;23.116;2023-03-13T03:21:33;94683.63;;;-2.12;83.32
55590;BME280;41452;42.780;23.116;2023-03-13T03:23:58;94678.13;;;-2.17;83.50
55590;BME280;41452;42.780;23.116;2023-03-13T03:26:23;94680.53;;;-2.16;83.71
55590;BME280;41452;42.780;23.116;2023-03-13T03:28:49;94687.63;;;-2.27;84.08
55590;BME280;41452;42.780;23.116;2023-03-13T03:31:15;94704.25;;;-2.40;85.52
55590;BME280;41452;42.780;23.116;2023-03-13T03:33:42;94705.91;;;-2.49;85.08
55590;BME280;41452;42.780;23.116;2023-03-13T03:36:10;94708.75;;;-2.61;86.34
55590;BME280;41452;42.780;23.116;2023-03-13T03:38:36;94714.13;;;-2.45;85.84
55590;BME280;41452;42.780;23.116;2023-03-13T03:41:04;94721.41;;;-2.40;85.75
55590;BME280;41452;42.780;23.116;2023-03-13T03:43:30;94728.28;;;-2.31;85.03
55590;BME280;41452;42.780;23.116;2023-03-13T03:45:55;94731.44;;;-2.47;85.03
55590;BME280;41452;42.780;23.116;2023-03-13T03:48:20;94706.50;;;-2.64;85.06
55590;BME280;41452;42.780;23.116;2023-03-13T03:50:46;94740.03;;;-2.66;86.01
55590;BME280;41452;42.780;23.116;2023-03-13T03:53:11;94726.75;;;-2.61;85.67
55590;BME280;41452;42.780;23.116;2023-03-13T03:55:37;94707.50;;;-2.95;85.77
55590;BME280;41452;42.780;23.116;2023-03-13T03:58:03;94738.97;;;-2.73;85.74
55590;BME280;41452;42.780;23.116;2023-03-13T04:00:29;94741.97;;;-2.78;86.37
55590;BME280;41452;42.780;23.116;2023-03-13T04:02:54;94751.72;;;-2.81;85.78
55590;BME280;41452;42.780;23.116;2023-03-13T04:05:23;94754.16;;;-2.80;85.25
55590;BME280;41452;42.780;23.116;2023-03-13T04:07:49;94753.59;;;-2.93;85.79
55590;BME280;41452;42.780;23.116;2023-03-13T04:10:14;94761.19;;;-2.82;85.80
55590;BME280;41452;42.780;23.116;2023-03-13T04:12:40;94770.41;;;-2.89;85.26
55590;BME280;41452;42.780;23.116;2023-03-13T04:15:06;94731.31;;;-3.02;85.45
55590;BME280;41452;42.780;23.116;2023-03-13T04:17:31;94764.16;;;-2.87;85.16
55590;BME280;41452;42.780;23.116;2023-03-13T04:19:58;94732.53;;;-3.07;85.11
55590;BME280;41452;42.780;23.116;2023-03-13T04:22:23;94768.75;;;-2.90;85.25
55590;BME280;41452;42.780;23.116;2023-03-13T04:24:48;94768.75;;;-2.90;85.44
55590;BME280;41452;42.780;23.116;2023-03-13T04:27:14;94757.41;;;-2.97;85.30
55590;BME280;41452;42.780;23.116;2023-03-13T04:29:39;94784.44;;;-2.93;85.84
55590;BME280;41452;42.780;23.116;2023-03-13T04:32:05;94784.75;;;-2.96;85.63
55590;BME280;41452;42.780;23.116;2023-03-13T04:34:30;94795.13;;;-2.88;85.10
55590;BME280;41452;42.780;23.116;2023-03-13T04:36:56;94786.91;;;-3.01;85.50
55590;BME280;41452;42.780;23.116;2023-03-13T04:39:21;94786.91;;;-3.01;85.03
55590;BME280;41452;42.780;23.116;2023-03-13T04:41:51;94796.63;;;-2.95;85.21
55590;BME280;41452;42.780;23.116;2023-03-13T04:44:16;94803.69;;;-3.07;86.02
55590;BME280;41452;42.780;23.116;2023-03-13T04:46:41;94809.34;;;-3.23;86.23
55590;BME280;41452;42.780;23.116;2023-03-13T04:49:07;94790.69;;;-3.45;86.71
55590;BME280;41452;42.780;23.116;2023-03-13T04:51:32;94795.53;;;-3.22;86.10
55590;BME280;41452;42.780;23.116;2023-03-13T04:53:57;94801.78;;;-3.05;86.00
55590;BME280;41452;42.780;23.116;2023-03-13T04:56:24;94792.03;;;-3.11;86.73
55590;BME280;41452;42.780;23.116;2023-03-13T04:58:50;94810.31;;;-3.04;85.85
55590;BME280;41452;42.780;23.116;2023-03-13T05:01:16;94815.44;;;-2.95;85.50
55590;BME280;41452;42.780;23.116;2023-03-13T05:03:41;94804.75;;;-3.10;86.27
55590;BME280;41452;42.780;23.116;2023-03-13T05:06:07;94805.16;;;-3.04;85.49
55590;BME280;41452;42.780;23.116;2023-03-13T05:08:32;94819.09;;;-3.07;86.80
55590;BME280;41452;42.780;23.116;2023-03-13T05:10:57;94820.31;;;-3.01;87.08
55590;BME280;41452;42.780;23.116;2023-03-13T05:13:23;94823.16;;;-2.95;86.50
55590;BME280;41452;42.780;23.116;2023-03-13T05:15:48;94767.97;;;-3.30;86.71
55590;BME280;41452;42.780;23.116;2023-03-13T05:18:14;94828.97;;;-2.83;87.12
55590;BME280;41452;42.780;23.116;2023-03-13T05:20:39;94823.97;;;-2.75;87.91
55590;BME280;41452;42.780;23.116;2023-03-13T05:23:04;94826.66;;;-2.76;87.56
55590;BME280;41452;42.780;23.116;2023-03-13T05:25:30;94833.69;;;-2.69;89.53
55590;BME280;41452;42.780;23.116;2023-03-13T05:27:55;94839.91;;;-2.61;88.49
55590;BME280;41452;42.780;23.116;2023-03-13T05:30:21;94842.06;;;-2.67;89.63
55590;BME280;41452;42.780;23.116;2023-03-13T05:32:46;94840.47;;;-2.68;89.27
55590;BME280;41452;42.780;23.116;2023-03-13T05:35:11;94848.28;;;-2.50;91.87
55590;BME280;41452;42.780;23.116;2023-03-13T05:37:37;94820.56;;;-2.56;90.76
55590;BME280;41452;42.780;23.116;2023-03-13T05:40:02;94850.97;;;-2.32;90.94
55590;BME280;41452;42.780;23.116;2023-03-13T05:42:28;94817.25;;;-2.38;90.58
55590;BME280;41452;42.780;23.116;2023-03-13T05:44:54;94854.81;;;-2.08;90.37
55590;BME280;41452;42.780;23.116;2023-03-13T05:47:19;94853.47;;;-2.02;90.84
55590;BME280;41452;42.780;23.116;2023-03-13T05:49:44;94858.47;;;-2.01;90.37
55590;BME280;41452;42.780;23.116;2023-03-13T05:52:10;94861.16;;;-1.93;89.84
55590;BME280;41452;42.780;23.116;2023-03-13T05:54:35;94854.63;;;-1.87;88.05
55590;BME280;41452;42.780;23.116;2023-03-13T05:57:01;94850.66;;;-1.81;89.16
55590;BME280;41452;42.780;23.116;2023-03-13T05:59:26;94848.59;;;-1.68;87.87
55590;BME280;41452;42.780;23.116;2023-03-13T06:01:52;94858.03;;;-1.59;85.55
55590;BME280;41452;42.780;23.116;2023-03-13T06:17:00;94854.84;;;0.09;81.21
55590;BME280;41452;42.780;23.116;2023-03-13T06:19:25;94854.78;;;0.01;80.09
55590;BME280;41452;42.780;23.116;2023-03-13T06:21:51;94789.28;;;-0.50;76.83
55590;BME280;41452;42.780;23.116;2023-03-13T06:24:16;94860.88;;;-0.08;78.88
55590;BME280;41452;42.780;23.116;2023-03-13T06:26:42;94823.75;;;-0.33;78.53
55590;BME280;41452;42.780;23.116;2023-03-13T06:29:09;94861.78;;;-0.17;79.27
55590;BME280;41452;42.780;23.116;2023-03-13T06:31:34;94867.13;;;-0.11;78.88
55590;BME280;41452;42.780;23.116;2023-03-13T06:34:00;94863.09;;;-0.13;78.31
55590;BME280;41452;42.780;23.116;2023-03-13T06:36:25;94869.81;;;-0.21;78.22
55590;BME280;41452;42.780;23.116;2023-03-13T06:38:51;94872.53;;;-0.22;78.54
55590;BME280;41452;42.780;23.116;2023-03-13T06:41:16;94844.03;;;-0.39;78.82
55590;BME280;41452;42.780;23.116;2023-03-13T06:43:42;94870.97;;;-0.15;78.77
55590;BME280;41452;42.780;23.116;2023-03-13T06:46:14;94876.28;;;-0.16;80.54
55590;BME280;41452;42.780;23.116;2023-03-13T06:48:40;94869.06;;;-0.13;81.82
55590;BME280;41452;42.780;23.116;2023-03-13T06:51:10;94875.94;;;0.05;80.88
55590;BME280;41452;42.780;23.116;2023-03-13T06:53:35;94873.06;;;0.08;78.77
55590;BME280;41452;42.780;23.116;2023-03-13T06:56:01;94872.28;;;0.15;79.95
55590;BME280;41452;42.780;23.116;2023-03-13T06:58:26;94869.41;;;0.18;80.33
55590;BME280;41452;42.780;23.116;2023-03-13T07:00:51;94878.94;;;0.18;81.17
55590;BME280;41452;42.780;23.116;2023-03-13T07:03:17;94869.41;;;0.18;79.90
55590;BME280;41452;42.780;23.116;2023-03-13T07:05:42;94867.03;;;0.25;79.34
55590;BME280;41452;42.780;23.116;2023-03-13T07:08:07;94839.84;;;0.13;78.69
55590;BME280;41452;42.780;23.116;2023-03-13T07:10:33;94871.00;;;0.46;79.94
55590;BME280;41452;42.780;23.116;2023-03-13T07:12:58;94860.06;;;0.52;76.96
55590;BME280;41452;42.780;23.116;2023-03-13T07:15:24;94852.94;;;0.54;77.08
55590;BME280;41452;42.780;23.116;2023-03-13T07:17:49;94852.50;;;0.67;75.74
55590;BME280;41452;42.780;23.116;2023-03-13T07:20:15;94846.81;;;0.55;75.78
55590;BME280;41452;42.780;23.116;2023-03-13T07:22:40;94857.38;;;0.70;76.61
55590;BME280;41452;42.780;23.116;2023-03-13T07:25:06;94849.00;;;0.84;77.86
55590;BME280;41452;42.780;23.116;2023-03-13T07:27:32;94854.03;;;0.94;76.58
55590;BME280;41452;42.780;23.116;2023-03-13T07:29:57;94871.22;;;1.03;76.59
55590;BME280;41452;42.780;23.116;2023-03-13T07:32:22;94868.44;;;0.97;77.25
55590;BME280;41452;42.780;23.116;2023-03-13T07:34:48;94867.50;;;1.14;77.34
55590;BME280;41452;42.780;23.116;2023-03-13T07:37:15;94866.03;;;1.11;76.22
55590;BME280;41452;42.780;23.116;2023-03-13T07:39:41;94856.34;;;1.22;75.19
55590;BME280;41452;42.780;23.116;2023-03-13T07:42:10;94821.72;;;1.06;74.41
55590;BME280;41452;42.780;23.116;2023-03-13T07:44:36;94851.69;;;1.42;77.72
55590;BME280;41452;42.780;23.116;2023-03-13T07:47:01;94853.13;;;1.52;73.90
55590;BME280;41452;42.780;23.116;2023-03-13T07:49:27;94844.25;;;1.55;74.42
55590;BME280;41452;42.780;23.116;2023-03-13T07:51:52;94833.25;;;1.69;75.03
55590;BME280;41452;42.780;23.116;2023-03-13T07:54:17;94840.50;;;1.74;72.38
55590;BME280;41452;42.780;23.116;2023-03-13T07:56:43;94855.72;;;1.85;71.87
55590;BME280;41452;42.780;23.116;2023-03-13T07:59:09;94832.72;;;1.82;71.28
55590;BME280;41452;42.780;23.116;2023-03-13T08:01:34;94856.53;;;1.94;73.25
55590;BME280;41452;42.780;23.116;2023-03-13T08:04:00;94859.91;;;2.03;69.99
55590;BME280;41452;42.780;23.116;2023-03-13T08:06:26;94849.50;;;2.11;69.81
55590;BME280;41452;42.780;23.116;2023-03-13T08:08:56;94825.44;;;1.86;67.83
55590;BME280;41452;42.780;23.116;2023-03-13T08:11:23;94859.25;;;2.17;70.00
55590;BME280;41452;42.780;23.116;2023-03-13T08:13:51;94822.53;;;1.97;68.35
55590;BME280;41452;42.780;23.116;2023-03-13T08:16:21;94861.63;;;2.35;69.52
55590;BME280;41452;42.780;23.116;2023-03-13T08:18:49;94866.78;;;2.43;70.75
55590;BME280;41452;42.780;23.116;2023-03-13T08:21:27;94858.63;;;2.55;70.59
55590;BME280;41452;42.780;23.116;2023-03-13T08:23:54;94851.63;;;2.63;70.73
55590;BME280;41452;42.780;23.116;2023-03-13T08:26:22;94861.88;;;2.57;67.39
55590;BME280;41452;42.780;23.116;2023-03-13T08:28:51;94796.03;;;2.26;67.71
55590;BME280;41452;42.780;23.116;2023-03-13T08:31:25;94862.25;;;2.77;65.88
55590;BME280;41452;42.780;23.116;2023-03-13T08:33:52;94811.09;;;2.71;68.52
55590;BME280;41452;42.780;23.116;2023-03-13T08:36:24;94850.44;;;3.05;66.86
55590;BME280;41452;42.780;23.116;2023-03-13T08:38:52;94791.66;;;2.66;65.97
55590;BME280;41452;42.780;23.116;2023-03-13T08:41:23;94778.94;;;2.80;65.61
55590;BME280;41452;42.780;23.116;2023-03-13T08:43:53;94848.06;;;3.27;65.61
55590;BME280;41452;42.780;23.116;2023-03-13T08:46:18;94787.69;;;3.02;67.45
55590;BME280;41452;42.780;23.116;2023-03-13T08:48:47;94850.84;;;3.49;70.71
55590;BME280;41452;42.780;23.116;2023-03-13T08:51:13;94824.75;;;3.19;67.14
55590;BME280;41452;42.780;23.116;2023-03-13T08:53:41;94850.50;;;3.29;65.17
55590;BME280;41452;42.780;23.116;2023-03-13T08:56:11;94849.91;;;3.41;64.95
55590;BME280;41452;42.780;23.116;2023-03-13T08:58:37;94850.50;;;3.52;66.28
55590;BME280;41452;42.780;23.116;2023-03-13T09:01:10;94813.19;;;3.45;64.49
55590;BME280;41452;42.780;23.116;2023-03-13T09:03:37;94794.41;;;3.19;65.56
55590;BME280;41452;42.780;23.116;2023-03-13T09:06:03;94849.66;;;3.74;62.76
55590;BME280;41452;42.780;23.116;2023-03-13T09:08:30;94849.25;;;3.86;62.60
55590;BME280;41452;42.780;23.116;2023-03-13T09:11:04;94849.16;;;3.94;65.55
55590;BME280;41452;42.780;23.116;2023-03-13T09:13:32;94853.94;;;4.05;65.05
55590;BME280;41452;42.780;23.116;2023-03-13T09:16:06;94861.06;;;4.03;64.73
55590;BME280;41452;42.780;23.116;2023-03-13T09:18:32;94812.66;;;3.87;63.40
55590;BME280;41452;42.780;23.116;2023-03-13T09:20:58;94857.16;;;4.07;61.84
55590;BME280;41452;42.780;23.116;2023-03-13T09:23:24;94851.84;;;4.00;61.48
55590;BME280;41452;42.780;23.116;2023-03-13T09:25:54;94839.25;;;4.27;61.40
55590;BME280;41452;42.780;23.116;2023-03-13T09:28:21;94849.47;;;4.44;60.97
55590;BME280;41452;42.780;23.116;2023-03-13T09:30:46;94839.78;;;4.52;61.52
55590;BME280;41452;42.780;23.116;2023-03-13T09:33:14;94804.81;;;4.40;61.45
55590;BME280;41452;42.780;23.116;2023-03-13T09:35:40;94840.22;;;4.71;59.35
55590;BME280;41452;42.780;23.116;2023-03-13T09:38:06;94834.16;;;4.34;60.64
55590;BME280;41452;42.780;23.116;2023-03-13T09:40:38;94824.97;;;4.68;61.20
55590;BME280;41452;42.780;23.116;2023-03-13T09:43:36;94837.09;;;4.61;60.34
55590;BME280;41452;42.780;23.116;2023-03-13T09:46:10;94819.19;;;4.87;60.81
55590;BME280;41452;42.780;23.116;2023-03-13T09:48:43;94813.69;;;4.61;60.91
55590;BME280;41452;42.780;23.116;2023-03-13T09:51:29;94828.84;;;4.42;63.03
55590;BME280;41452;42.780;23.116;2023-03-13T09:56:49;94823.22;;;4.90;62.04
55590;BME280;41452;42.780;23.116;2023-03-13T09:59:59;94802.56;;;5.03;60.57
55590;BME280;41452;42.780;23.116;2023-03-13T10:02:34;94805.91;;;5.19;60.82
55590;BME280;41452;42.780;23.116;2023-03-13T10:07:30;94800.81;;;4.89;59.57
55590;BME280;41452;42.780;23.116;2023-03-13T10:09:58;94794.78;;;4.88;58.84
55590;BME280;41452;42.780;23.116;2023-03-13T10:12:27;94775.06;;;5.01;59.04
55590;BME280;41452;42.780;23.116;2023-03-13T10:17:42;94795.44;;;5.33;59.04
55590;BME280;41452;42.780;23.116;2023-03-13T10:20:20;94795.41;;;5.55;58.91
55590;BME280;41452;42.780;23.116;2023-03-13T10:22:49;94786.66;;;5.63;59.19
55590;BME280;41452;42.780;23.116;2023-03-13T10:25:32;94786.28;;;5.66;57.59
55590;BME280;41452;42.780;23.116;2023-03-13T10:27:58;94776.78;;;5.80;58.37
55590;BME280;41452;42.780;23.116;2023-03-13T10:30:30;94777.69;;;5.44;60.16
55590;BME280;41452;42.780;23.116;2023-03-13T10:35:40;94697.47;;;5.11;57.63
55590;BME280;41452;42.780;23.116;2023-03-13T10:38:18;94771.19;;;5.83;57.57
55590;BME280;41452;42.780;23.116;2023-03-13T10:41:04;94758.91;;;6.05;60.74
55590;BME280;41452;42.780;23.116;2023-03-13T10:43:33;94757.44;;;6.24;58.59
55590;BME280;41452;42.780;23.116;2023-03-13T10:45:58;94729.16;;;6.34;59.43
55590;BME280;41452;42.780;23.116;2023-03-13T10:48:28;94746.31;;;6.57;57.17
55590;BME280;41452;42.780;23.116;2023-03-13T10:50:55;94736.09;;;6.62;57.71
55590;BME280;41452;42.780;23.116;2023-03-13T10:56:13;94727.84;;;6.10;58.02
55590;BME280;41452;42.780;23.116;2023-03-13T10:58:42;94728.94;;;6.22;58.11
55590;BME280;41452;42.780;23.116;2023-03-13T11:01:14;94723.16;;;6.34;58.67
55590;BME280;41452;42.780;23.116;2023-03-13T11:03:41;94736.28;;;6.60;58.92
55590;BME280;41452;42.780;23.116;2023-03-13T11:06:29;94714.38;;;6.41;56.08
55590;BME280;41452;42.780;23.116;2023-03-13T11:09:10;94733.63;;;6.40;56.74
55590;BME280;41452;42.780;23.116;2023-03-13T11:12:04;94723.72;;;6.77;58.69
55590;BME280;41452;42.780;23.116;2023-03-13T11:14:31;94720.28;;;6.77;57.69
55590;BME280;41452;42.780;23.116;2023-03-13T11:17:03;94722.91;;;6.70;56.53
55590;BME280;41452;42.780;23.116;2023-03-13T11:27:22;94707.91;;;7.26;52.49
55590;BME280;41452;42.780;23.116;2023-03-13T11:32:42;94700.91;;;7.46;53.93
55590;BME280;41452;42.780;23.116;2023-03-13T11:35:34;94691.25;;;7.27;54.00
55590;BME280;41452;42.780;23.116;2023-03-13T11:38:07;94654.84;;;7.32;57.74
55590;BME280;41452;42.780;23.116;2023-03-13T11:40:36;94679.56;;;7.56;52.99
55590;BME280;41452;42.780;23.116;2023-03-13T11:51:33;94665.91;;;7.54;52.17
55590;BME280;41452;42.780;23.116;2023-03-13T11:56:57;94603.38;;;7.59;52.11
55590;BME280;41452;42.780;23.116;2023-03-13T11:59:52;94633.63;;;8.00;51.59
55590;BME280;41452;42.780;23.116;2023-03-13T12:02:30;94648.31;;;7.94;51.06
55590;BME280;41452;42.780;23.116;2023-03-13T12:05:00;94641.09;;;7.83;51.57
55590;BME280;41452;42.780;23.116;2023-03-13T12:07:31;94625.75;;;8.00;50.92
55590;BME280;41452;42.780;23.116;2023-03-13T12:10:02;94629.72;;;8.23;51.09
55590;BME280;41452;42.780;23.116;2023-03-13T12:12:52;94633.28;;;8.35;50.84
55590;BME280;41452;42.780;23.116;2023-03-13T12:15:23;94619.78;;;8.31;48.36
55590;BME280;41452;42.780;23.116;2023-03-13T12:18:48;94589.81;;;8.27;49.17
55590;BME280;41452;42.780;23.116;2023-03-13T12:23:45;94622.13;;;8.85;47.23
55590;BME280;41452;42.780;23.116;2023-03-13T12:26:13;94626.25;;;8.99;49.18
55590;BME280;41452;42.780;23.116;2023-03-13T12:28:46;94628.13;;;8.92;48.20
55590;BME280;41452;42.780;23.116;2023-03-13T12:31:28;94604.97;;;8.89;45.26
55590;BME280;41452;42.780;23.116;2023-03-13T12:34:08;94577.44;;;8.80;45.66
55590;BME280;41452;42.780;23.116;2023-03-13T12:36:47;94617.44;;;9.19;46.33
55590;BME280;41452;42.780;23.116;2023-03-13T12:45:04;94591.69;;;9.34;45.31
55590;BME280;41452;42.780;23.116;2023-03-13T12:53:00;94611.69;;;9.72;43.78
55590;BME280;41452;42.780;23.116;2023-03-13T12:55:57;94588.59;;;9.62;46.71
55590;BME280;41452;42.780;23.116;2023-03-13T12:58:46;94605.66;;;9.90;44.01
55590;BME280;41452;42.780;23.116;2023-03-13T13:04:01;94611.97;;;9.82;38.51
55590;BME280;41452;42.780;23.116;2023-03-13T13:06:50;94579.06;;;9.86;40.96
55590;BME280;41452;42.780;23.116;2023-03-13T13:09:23;94600.59;;;10.07;41.76
55590;BME280;41452;42.780;23.116;2023-03-13T13:11:49;94571.53;;;9.71;41.94
55590;BME280;41452;42.780;23.116;2023-03-13T13:16:43;94592.59;;;9.83;41.14
55590;BME280;41452;42.780;23.116;2023-03-13T13:32:43;94580.97;;;9.79;37.14
55590;BME280;41452;42.780;23.116;2023-03-13T13:37:40;94580.81;;;9.74;38.24
55590;BME280;41452;42.780;23.116;2023-03-13T13:43:18;94574.88;;;9.79;39.33
55590;BME280;41452;42.780;23.116;2023-03-13T13:45:37;94557.66;;;9.89;39.58
55590;BME280;41452;42.780;23.116;2023-03-13T13:48:23;94576.25;;;10.18;38.60
55590;BME280;41452;42.780;23.116;2023-03-13T13:56:33;94570.06;;;10.13;38.05
55590;BME280;41452;42.780;23.116;2023-03-13T14:04:32;94541.75;;;9.84;36.66
55590;BME280;41452;42.780;23.116;2023-03-13T14:07:04;94561.59;;;10.11;36.76
55590;BME280;41452;42.780;23.116;2023-03-13T14:09:46;94558.41;;;10.08;35.87
55590;BME280;41452;42.780;23.116;2023-03-13T14:12:33;94562.88;;;9.89;35.68
55590;BME280;41452;42.780;23.116;2023-03-13T14:17:51;94562.56;;;9.98;34.29
55590;BME280;41452;42.780;23.116;2023-03-13T14:22:49;94559.94;;;10.16;33.46
55590;BME280;41452;42.780;23.116;2023-03-13T14:25:15;94560.94;;;10.15;32.88
55590;BME280;41452;42.780;23.116;2023-03-13T14:27:46;94554.22;;;10.19;34.22
55590;BME280;41452;42.780;23.116;2023-03-13T14:30:15;94563.84;;;10.25;33.47
55590;BME280;41452;42.780;23.116;2023-03-13T14:32:41;94552.09;;;10.28;34.86
55590;BME280;41452;42.780;23.116;2023-03-13T14:35:08;94556.72;;;10.44;33.56
55590;BME280;41452;42.780;23.116;2023-03-13T14:37:42;94545.56;;;10.49;34.89
55590;BME280;41452;42.780;23.116;2023-03-13T14:40:19;94545.97;;;10.64;34.29
55590;BME280;41452;42.780;23.116;2023-03-13T14:42:47;94556.19;;;10.54;33.51
55590;BME280;41452;42.780;23.116;2023-03-13T14:45:22;94536.28;;;9.86;35.49
55590;BME280;41452;42.780;23.116;2023-03-13T14:47:50;94560.03;;;9.73;35.04
55590;BME280;41452;42.780;23.116;2023-03-13T14:50:16;94552.97;;;9.36;34.12
55590;BME280;41452;42.780;23.116;2023-03-13T14:52:48;94502.38;;;9.36;35.44
55590;BME280;41452;42.780;23.116;2023-03-13T14:58:04;94557.69;;;10.01;33.90